createdAt,value
2018-09-08T00:01:52.494Z,16.75
2018-09-08T00:04:21.788Z,16.70
2018-09-08T00:06:56.266Z,16.68
2018-09-08T00:09:25.751Z,16.63
2018-09-08T00:11:55.134Z,16.56
2018-09-08T00:14:24.495Z,16.48
2018-09-08T00:16:58.989Z,16.43
2018-09-08T00:19:33.453Z,16.40
2018-09-08T00:22:08.023Z,16.37
2018-09-08T00:24:42.686Z,16.32
2018-09-08T00:27:11.098Z,16.24
2018-09-08T00:29:48.761Z,16.19
2018-09-08T00:32:19.014Z,16.17
2018-09-08T00:34:48.361Z,16.12
2018-09-08T00:37:17.708Z,15.89
2018-09-08T00:39:51.030Z,15.78
2018-09-08T00:42:20.746Z,15.75
2018-09-08T00:44:50.042Z,15.80
2018-09-08T00:47:19.380Z,15.84
2018-09-08T00:49:48.861Z,15.88
2018-09-08T00:52:18.198Z,15.82
2018-09-08T00:54:47.808Z,15.81
2018-09-08T00:57:17.137Z,15.66
2018-09-08T00:59:46.445Z,15.53
2018-09-08T01:02:15.787Z,15.47
2018-09-08T01:04:45.254Z,15.42
2018-09-08T01:07:19.896Z,15.38
2018-09-08T01:09:49.226Z,15.27
2018-09-08T01:12:18.546Z,15.22
2018-09-08T01:14:47.887Z,15.12
2018-09-08T01:17:17.236Z,15.01
2018-09-08T01:19:46.558Z,14.97
2018-09-08T01:22:16.072Z,14.93
2018-09-08T01:24:45.704Z,14.95
2018-09-08T01:27:15.009Z,15.07
2018-09-08T01:29:44.331Z,15.18
2018-09-08T01:32:14.074Z,15.30
2018-09-08T01:34:43.499Z,15.38
2018-09-08T01:37:12.868Z,15.42
2018-09-08T01:39:42.237Z,15.44
2018-09-08T01:42:11.534Z,15.45
2018-09-08T01:44:40.841Z,15.43
2018-09-08T01:47:10.173Z,15.36
2018-09-08T01:49:39.516Z,15.35
2018-09-08T01:52:09.373Z,15.25
2018-09-08T01:54:38.685Z,15.17
2018-09-08T01:57:08.324Z,15.04
2018-09-08T01:59:37.629Z,15.01
2018-09-08T02:02:07.121Z,14.87
2018-09-08T02:04:36.449Z,14.77
2018-09-08T02:07:05.889Z,14.74
2018-09-08T02:09:35.225Z,14.71
2018-09-08T02:12:04.660Z,14.71
2018-09-08T02:14:33.957Z,14.66
2018-09-08T02:17:03.302Z,14.71
2018-09-08T02:19:32.613Z,14.72
2018-09-08T02:22:01.916Z,14.72
2018-09-08T02:24:31.589Z,14.72
2018-09-08T02:27:00.923Z,14.71
2018-09-08T02:29:30.453Z,14.69
2018-09-08T02:31:59.905Z,14.69
2018-09-08T02:34:29.325Z,14.65
2018-09-08T02:36:58.656Z,14.65
2018-09-08T02:39:27.999Z,14.68
2018-09-08T02:41:57.561Z,14.71
2018-09-08T02:44:26.874Z,14.64
2018-09-08T02:46:56.326Z,14.60
2018-09-08T02:49:36.848Z,14.61
2018-09-08T02:52:04.509Z,14.62
2018-09-08T02:54:32.168Z,14.59
2018-09-08T02:56:59.905Z,14.57
2018-09-08T02:59:27.598Z,14.55
2018-09-08T03:01:55.362Z,14.59
2018-09-08T03:04:23.023Z,14.62
2018-09-08T03:06:50.781Z,14.63
2018-09-08T03:09:18.429Z,14.69
2018-09-08T03:11:46.090Z,14.77
2018-09-08T03:14:13.769Z,14.88
2018-09-08T03:16:41.434Z,14.86
2018-09-08T03:19:09.076Z,14.92
2018-09-08T03:21:36.751Z,14.96
2018-09-08T03:24:04.389Z,14.97
2018-09-08T03:26:32.053Z,14.91
2018-09-08T03:28:59.745Z,14.87
2018-09-08T03:31:27.416Z,14.81
2018-09-08T03:33:55.062Z,14.78
2018-09-08T03:36:22.733Z,14.76
2018-09-08T03:38:50.380Z,14.70
2018-09-08T03:41:18.025Z,14.63
2018-09-08T03:43:45.685Z,14.58
2018-09-08T03:46:13.345Z,14.58
2018-09-08T03:48:40.994Z,14.53
2018-09-08T03:51:08.717Z,14.48
2018-09-08T03:53:36.360Z,14.40
2018-09-08T03:56:04.009Z,14.34
2018-09-08T03:58:31.697Z,14.29
2018-09-08T04:00:59.569Z,14.26
2018-09-08T04:03:29.034Z,14.23
2018-09-08T04:05:58.462Z,14.22
2018-09-08T04:08:28.070Z,14.19
2018-09-08T04:10:57.397Z,14.15
2018-09-08T04:13:26.952Z,14.11
2018-09-08T04:15:56.273Z,14.03
2018-09-08T04:18:25.587Z,13.95
2018-09-08T04:20:54.925Z,13.94
2018-09-08T04:23:24.252Z,13.90
2018-09-08T04:25:53.596Z,13.90
2018-09-08T04:28:22.981Z,13.88
2018-09-08T04:30:52.297Z,13.86
2018-09-08T04:33:21.645Z,13.87
2018-09-08T04:35:50.966Z,13.89
2018-09-08T04:38:20.651Z,13.90
2018-09-08T04:40:50.479Z,13.93
2018-09-08T04:43:20.238Z,13.89
2018-09-08T04:45:49.855Z,13.85
2018-09-08T04:48:19.550Z,13.84
2018-09-08T04:50:49.211Z,13.80
2018-09-08T04:53:19.190Z,13.81
2018-09-08T04:55:49.420Z,13.79
2018-09-08T04:58:19.082Z,13.84
2018-09-08T05:00:48.733Z,13.83
2018-09-08T05:03:18.404Z,13.82
2018-09-08T05:05:48.179Z,13.80
2018-09-08T05:08:17.830Z,13.76
2018-09-08T05:10:47.583Z,13.77
2018-09-08T05:13:17.164Z,13.78
2018-09-08T05:15:46.778Z,13.76
2018-09-08T05:18:16.411Z,13.76
2018-09-08T05:20:46.067Z,13.73
2018-09-08T05:23:15.738Z,13.79
2018-09-08T05:25:45.353Z,13.83
2018-09-08T05:28:15.023Z,13.86
2018-09-08T05:30:44.842Z,13.87
2018-09-08T05:33:14.507Z,13.89
2018-09-08T05:35:44.210Z,13.92
2018-09-08T05:38:14.015Z,13.95
2018-09-08T05:40:43.767Z,13.97
2018-09-08T05:43:13.567Z,14.11
2018-09-08T05:45:43.264Z,14.25
2018-09-08T05:48:12.991Z,14.32
2018-09-08T05:50:42.554Z,14.36
2018-09-08T05:53:12.256Z,14.36
2018-09-08T05:55:41.986Z,14.34
2018-09-08T05:58:11.799Z,14.37
2018-09-08T06:00:41.505Z,14.40
2018-09-08T06:03:11.216Z,14.54
2018-09-08T06:05:40.870Z,14.70
2018-09-08T06:08:10.624Z,14.88
2018-09-08T06:10:40.381Z,15.05
2018-09-08T06:13:10.077Z,15.27
2018-09-08T06:15:39.715Z,15.44
2018-09-08T06:18:09.402Z,15.55
2018-09-08T06:20:39.033Z,15.76
2018-09-08T06:23:08.734Z,16.01
2018-09-08T06:25:38.493Z,16.23
2018-09-08T06:28:08.104Z,16.46
2018-09-08T06:30:37.710Z,16.76
2018-09-08T06:33:07.388Z,17.48
2018-09-08T06:35:37.026Z,17.69
2018-09-08T06:38:06.977Z,18.57
2018-09-08T06:40:36.709Z,19.73
2018-09-08T06:43:06.935Z,21.00
2018-09-08T06:45:36.582Z,21.51
2018-09-08T06:48:06.552Z,21.98
2018-09-08T06:50:36.337Z,23.36
2018-09-08T06:53:06.074Z,23.06
2018-09-08T06:55:35.828Z,23.35
2018-09-08T06:58:05.563Z,23.25
2018-09-08T07:00:35.254Z,24.86
2018-09-08T07:03:05.182Z,24.99
2018-09-08T07:05:34.878Z,24.92
2018-09-08T07:08:04.531Z,24.81
2018-09-08T07:10:34.281Z,24.51
2018-09-08T07:13:04.011Z,23.67
2018-09-08T07:15:33.849Z,26.00
2018-09-08T07:18:03.602Z,27.05
2018-09-08T07:20:33.316Z,25.09
2018-09-08T07:23:03.106Z,26.36
2018-09-08T07:25:33.063Z,26.49
2018-09-08T07:28:02.803Z,26.71
2018-09-08T07:30:33.793Z,27.00
2018-09-08T07:33:03.521Z,28.00
2018-09-08T07:35:33.276Z,27.77
2018-09-08T07:38:02.896Z,27.43
2018-09-08T07:40:32.516Z,26.54
2018-09-08T07:43:02.218Z,25.64
2018-09-08T07:45:31.838Z,26.25
2018-09-08T07:48:01.475Z,26.56
2018-09-08T07:50:31.097Z,27.07
2018-09-08T07:53:00.851Z,25.82
2018-09-08T07:55:30.532Z,25.63
2018-09-08T07:58:00.375Z,27.03
2018-09-08T08:00:30.118Z,26.19
2018-09-08T08:02:59.766Z,23.88
2018-09-08T08:05:29.954Z,25.23
2018-09-08T08:08:00.480Z,24.35
2018-09-08T08:10:30.363Z,23.32
2018-09-08T08:13:00.149Z,24.15
2018-09-08T08:15:29.974Z,25.34
2018-09-08T08:17:59.962Z,26.29
2018-09-08T08:20:29.735Z,26.97
2018-09-08T08:22:59.486Z,26.43
2018-09-08T08:25:29.338Z,25.08
2018-09-08T08:27:59.204Z,23.94
2018-09-08T08:30:29.041Z,25.56
2018-09-08T08:32:59.314Z,25.09
2018-09-08T08:35:29.062Z,24.88
2018-09-08T08:37:58.779Z,26.53
2018-09-08T08:40:28.468Z,25.47
2018-09-08T08:42:58.130Z,25.76
2018-09-08T08:45:27.857Z,26.34
2018-09-08T08:47:58.126Z,27.58
2018-09-08T08:50:44.365Z,27.05
2018-09-08T08:53:30.638Z,27.42
2018-09-08T08:56:00.211Z,26.38
2018-09-08T08:58:29.905Z,25.97
2018-09-08T09:00:59.654Z,26.27
2018-09-08T09:03:29.503Z,24.77
2018-09-08T09:05:59.167Z,25.36
2018-09-08T09:08:29.328Z,28.13
2018-09-08T09:10:58.667Z,26.95
2018-09-08T09:13:28.846Z,25.23
2018-09-08T09:15:58.406Z,25.34
2018-09-08T09:18:45.444Z,24.25
2018-09-08T09:21:31.702Z,25.51
2018-09-08T09:24:29.532Z,26.52
2018-09-08T09:26:58.797Z,28.14
2018-09-08T09:29:28.505Z,28.75
2018-09-08T09:31:58.205Z,30.09
2018-09-08T09:34:27.998Z,31.68
2018-09-08T09:36:57.713Z,30.17
2018-09-08T09:39:27.466Z,31.02
2018-09-08T09:41:57.179Z,31.79
2018-09-08T09:44:27.031Z,31.59
2018-09-08T09:46:56.678Z,32.54
2018-09-08T09:49:26.407Z,30.45
2018-09-08T09:51:56.543Z,31.02
2018-09-08T09:54:26.402Z,30.79
2018-09-08T09:56:56.442Z,31.90
2018-09-08T09:59:26.232Z,31.22
2018-09-08T10:02:00.986Z,30.79
2018-09-08T10:04:30.704Z,29.53
2018-09-08T10:07:00.332Z,32.25
2018-09-08T10:09:30.505Z,32.16
2018-09-08T10:12:00.095Z,32.95
2018-09-08T10:14:29.793Z,31.17
2018-09-08T10:16:59.474Z,33.16
2018-09-08T10:19:29.241Z,31.95
2018-09-08T10:21:58.954Z,31.22
2018-09-08T10:24:28.709Z,29.96
2018-09-08T10:26:58.386Z,29.72
2018-09-08T10:29:28.079Z,32.00
2018-09-08T10:31:57.779Z,33.85
2018-09-08T10:34:27.505Z,34.56
2018-09-08T10:36:57.096Z,32.84
2018-09-08T10:39:26.876Z,31.56
2018-09-08T10:41:56.606Z,32.52
2018-09-08T10:44:26.483Z,34.01
2018-09-08T10:46:56.289Z,33.55
2018-09-08T10:49:26.200Z,35.01
2018-09-08T10:52:07.752Z,33.73
2018-09-08T10:54:37.355Z,31.57
2018-09-08T10:57:07.500Z,34.30
2018-09-08T10:59:37.117Z,34.14
2018-09-08T11:02:07.023Z,33.28
2018-09-08T11:04:36.482Z,34.53
2018-09-08T11:07:06.096Z,35.16
2018-09-08T11:09:35.766Z,34.61
2018-09-08T11:12:05.365Z,33.65
2018-09-08T11:14:35.032Z,33.79
2018-09-08T11:17:04.661Z,34.72
2018-09-08T11:19:34.320Z,33.68
2018-09-08T11:22:04.034Z,33.04
2018-09-08T11:24:33.933Z,33.11
2018-09-08T11:27:03.617Z,34.52
2018-09-08T11:29:33.219Z,35.35
2018-09-08T11:32:02.778Z,32.90
2018-09-08T11:34:32.627Z,34.80
2018-09-08T11:37:02.271Z,34.34
2018-09-08T11:39:31.778Z,32.24
2018-09-08T11:42:01.444Z,32.59
2018-09-08T11:44:31.057Z,34.62
2018-09-08T11:47:01.010Z,34.75
2018-09-08T11:49:30.755Z,35.62
2018-09-08T11:52:00.590Z,35.88
2018-09-08T11:54:30.303Z,34.18
2018-09-08T11:57:00.011Z,33.75
2018-09-08T11:59:29.669Z,33.04
2018-09-08T12:01:59.336Z,33.67
2018-09-08T12:04:29.030Z,35.56
2018-09-08T12:06:58.763Z,35.70
2018-09-08T12:09:28.292Z,36.43
2018-09-08T12:11:58.035Z,31.16
2018-09-08T12:14:27.626Z,33.53
2018-09-08T12:16:57.509Z,36.35
2018-09-08T12:19:27.194Z,36.43
2018-09-08T12:21:57.050Z,36.45
2018-09-08T12:24:26.797Z,37.00
2018-09-08T12:26:56.439Z,37.54
2018-09-08T12:29:26.014Z,35.07
2018-09-08T12:31:55.698Z,37.87
2018-09-08T12:34:25.354Z,35.37
2018-09-08T12:36:55.061Z,37.49
2018-09-08T12:39:24.988Z,38.46
2018-09-08T12:41:55.029Z,37.70
2018-09-08T12:44:24.902Z,33.27
2018-09-08T12:46:54.550Z,33.75
2018-09-08T12:49:24.130Z,34.60
2018-09-08T12:51:53.738Z,35.03
2018-09-08T12:54:23.397Z,34.22
2018-09-08T12:56:53.076Z,33.59
2018-09-08T12:59:22.714Z,32.30
2018-09-08T13:01:52.246Z,33.24
2018-09-08T13:04:21.826Z,33.61
2018-09-08T13:06:51.512Z,33.43
2018-09-08T13:09:21.210Z,33.27
2018-09-08T13:11:50.853Z,35.42
2018-09-08T13:14:20.465Z,36.05
2018-09-08T13:16:49.862Z,31.98
2018-09-08T13:19:19.466Z,30.62
2018-09-08T13:21:49.113Z,30.98
2018-09-08T13:24:18.738Z,32.81
2018-09-08T13:26:48.395Z,33.97
2018-09-08T13:29:18.046Z,33.11
2018-09-08T13:31:47.739Z,32.20
2018-09-08T13:34:17.368Z,34.99
2018-09-08T13:36:46.724Z,34.67
2018-09-08T13:39:16.129Z,38.00
2018-09-08T13:41:45.714Z,34.50
2018-09-08T13:44:15.102Z,32.30
2018-09-08T13:46:44.410Z,32.82
2018-09-08T13:49:13.808Z,32.80
2018-09-08T13:51:43.147Z,35.07
2018-09-08T13:54:12.429Z,34.89
2018-09-08T13:56:41.782Z,35.21
2018-09-08T13:59:11.118Z,33.47
2018-09-08T14:01:40.413Z,33.19
2018-09-08T14:04:09.749Z,33.91
2018-09-08T14:06:39.086Z,34.21
2018-09-08T14:09:08.418Z,33.50
2018-09-08T14:11:37.877Z,32.64
2018-09-08T14:14:07.257Z,32.56
2018-09-08T14:16:36.665Z,35.54
2018-09-08T14:19:06.193Z,32.05
2018-09-08T14:21:35.517Z,34.72
2018-09-08T14:24:04.829Z,33.51
2018-09-08T14:26:34.161Z,35.07
2018-09-08T14:29:03.537Z,36.38
2018-09-08T14:31:32.846Z,38.29
2018-09-08T14:34:02.249Z,36.82
2018-09-08T14:36:31.591Z,33.45
2018-09-08T14:39:00.898Z,33.45
2018-09-08T14:41:30.184Z,35.49
2018-09-08T14:43:59.556Z,37.56
2018-09-08T14:46:32.733Z,36.06
2018-09-08T14:49:02.103Z,36.55
2018-09-08T14:51:31.401Z,37.51
2018-09-08T14:54:00.950Z,36.87
2018-09-08T14:56:30.557Z,35.60
2018-09-08T14:58:59.978Z,34.82
2018-09-08T15:01:29.357Z,35.58
2018-09-08T15:03:58.761Z,34.42
2018-09-08T15:06:28.103Z,34.64
2018-09-08T15:08:57.753Z,33.76
2018-09-08T15:11:27.097Z,33.79
2018-09-08T15:13:56.722Z,35.77
2018-09-08T15:16:26.071Z,33.96
2018-09-08T15:18:55.437Z,34.51
2018-09-08T15:21:24.899Z,36.51
2018-09-08T15:23:54.679Z,36.19
2018-09-08T15:26:54.635Z,35.98
2018-09-08T15:29:23.993Z,34.43
2018-09-08T15:31:53.312Z,35.67
2018-09-08T15:37:26.499Z,34.65
2018-09-08T15:39:55.938Z,37.17
2018-09-08T15:42:25.267Z,34.20
2018-09-08T15:44:54.609Z,35.00
2018-09-08T15:47:23.926Z,34.75
2018-09-08T15:49:53.328Z,34.95
2018-09-08T15:52:22.736Z,35.42
2018-09-08T15:54:52.055Z,35.86
2018-09-08T15:57:21.465Z,35.68
2018-09-08T15:59:51.086Z,35.18
2018-09-08T16:02:20.441Z,34.62
2018-09-08T16:04:49.749Z,34.91
2018-09-08T16:07:19.236Z,36.01
2018-09-08T16:09:48.569Z,34.47
2018-09-08T16:12:18.013Z,34.71
2018-09-08T16:14:47.353Z,34.38
2018-09-08T16:17:16.676Z,33.30
2018-09-08T16:19:46.556Z,35.01
2018-09-08T16:22:16.074Z,35.64
2018-09-08T16:24:45.777Z,35.00
2018-09-08T16:27:17.542Z,34.47
2018-09-08T16:29:47.219Z,33.86
2018-09-08T16:32:16.864Z,35.49
2018-09-08T16:34:46.596Z,36.48
2018-09-08T16:37:16.162Z,35.20
2018-09-08T16:39:46.111Z,35.94
2018-09-08T16:42:15.782Z,36.23
2018-09-08T16:44:45.423Z,37.07
2018-09-08T16:47:15.114Z,37.19
2018-09-08T16:49:44.854Z,36.81
2018-09-08T16:52:14.471Z,36.60
2018-09-08T16:54:47.858Z,35.35
2018-09-08T16:57:17.444Z,33.44
2018-09-08T16:59:47.035Z,31.68
2018-09-08T17:02:16.682Z,30.28
2018-09-08T17:04:46.295Z,28.81
2018-09-08T17:07:16.033Z,27.48
2018-09-08T17:09:45.667Z,26.28
2018-09-08T17:12:15.328Z,25.18
2018-09-08T17:14:45.046Z,24.50
2018-09-08T17:17:14.678Z,23.97
2018-09-08T17:19:44.381Z,23.55
2018-09-08T17:22:14.120Z,23.15
2018-09-08T17:24:43.779Z,22.81
2018-09-08T17:27:13.403Z,22.53
2018-09-08T17:29:43.134Z,22.28
2018-09-08T17:32:13.040Z,22.01
2018-09-08T17:34:42.765Z,21.79
2018-09-08T17:37:12.568Z,21.54
2018-09-08T17:39:42.268Z,21.32
2018-09-08T17:42:12.003Z,21.07
2018-09-08T17:44:41.723Z,20.83
2018-09-08T17:47:11.482Z,20.58
2018-09-08T17:49:41.137Z,20.30
2018-09-08T17:52:10.936Z,20.10
2018-09-08T17:54:40.583Z,19.88
2018-09-08T17:57:10.258Z,19.68
2018-09-08T17:59:40.098Z,19.55
2018-09-08T18:02:09.907Z,19.36
2018-09-08T18:04:39.670Z,19.25
2018-09-08T18:07:13.327Z,19.09
2018-09-08T18:09:43.058Z,18.93
2018-09-08T18:14:52.770Z,18.65
2018-09-08T18:17:22.234Z,18.52
2018-09-08T18:19:51.557Z,18.40
2018-09-08T18:22:20.873Z,18.32
2018-09-08T18:24:50.185Z,18.21
2018-09-08T18:27:19.517Z,18.09
2018-09-08T18:29:48.953Z,17.97
2018-09-08T18:32:18.278Z,17.87
2018-09-08T18:34:47.585Z,17.75
2018-09-08T18:37:16.962Z,17.65
2018-09-08T18:39:46.292Z,17.55
2018-09-08T18:42:15.586Z,17.54
2018-09-08T18:44:44.914Z,17.41
2018-09-08T18:47:14.230Z,17.33
2018-09-08T18:49:43.549Z,17.28
2018-09-08T18:52:12.985Z,17.25
2018-09-08T18:54:42.284Z,17.18
2018-09-08T18:57:12.045Z,17.08
2018-09-08T18:59:41.390Z,17.04
2018-09-08T19:02:10.697Z,16.96
2018-09-08T19:04:39.991Z,16.88
2018-09-08T19:07:09.365Z,16.82
2018-09-08T19:09:38.863Z,16.72
2018-09-08T19:12:08.182Z,16.58
2018-09-08T19:14:42.881Z,16.49
2018-09-08T19:17:12.447Z,16.47
2018-09-08T19:19:41.807Z,16.38
2018-09-08T19:22:11.206Z,16.23
2018-09-08T19:24:43.530Z,16.14
2018-09-08T19:27:13.932Z,16.06
2018-09-08T19:29:48.965Z,16.03
2018-09-08T19:32:19.527Z,15.94
2018-09-08T19:35:57.825Z,15.90
2018-09-08T19:38:27.179Z,15.77
2018-09-08T19:40:56.478Z,15.76
2018-09-08T19:43:25.800Z,15.74
2018-09-08T19:45:55.214Z,15.75
2018-09-08T19:48:24.526Z,15.72
2018-09-08T19:50:53.821Z,15.70
2018-09-08T19:53:28.457Z,15.61
2018-09-08T19:55:57.773Z,15.57
2018-09-08T19:58:32.292Z,15.59
2018-09-08T20:01:01.604Z,15.60
2018-09-08T20:03:30.917Z,15.54
2018-09-08T20:06:00.236Z,15.48
2018-09-08T20:08:29.535Z,15.33
2018-09-08T20:10:58.901Z,15.27
2018-09-08T20:13:28.278Z,15.19
2018-09-08T20:15:57.673Z,15.16
2018-09-08T20:18:27.080Z,15.06
2018-09-08T20:20:56.573Z,15.00
2018-09-08T20:23:25.909Z,15.03
2018-09-08T20:25:55.314Z,15.03
2018-09-08T20:28:24.657Z,15.02
2018-09-08T20:30:53.999Z,14.99
2018-09-08T20:33:23.434Z,14.94
2018-09-08T20:35:52.879Z,14.92
2018-09-08T20:38:22.494Z,14.89
2018-09-08T20:40:52.231Z,14.87
2018-09-08T20:43:21.966Z,14.81
2018-09-08T20:45:52.178Z,14.79
2018-09-08T20:48:21.905Z,14.72
2018-09-08T20:50:51.891Z,14.64
2018-09-08T20:53:22.242Z,14.65
2018-09-08T20:55:51.862Z,14.59
2018-09-08T20:58:21.698Z,14.51
2018-09-08T21:00:51.418Z,14.38
2018-09-08T21:03:21.313Z,14.29
2018-09-08T21:05:50.971Z,14.13
2018-09-08T21:08:20.863Z,14.12
2018-09-08T21:10:50.519Z,14.16
2018-09-08T21:13:20.391Z,14.20
2018-09-08T21:15:50.103Z,14.14
2018-09-08T21:18:19.828Z,14.10
2018-09-08T21:20:49.545Z,14.05
2018-09-08T21:23:19.215Z,14.00
2018-09-08T21:25:48.941Z,13.94
2018-09-08T21:28:18.636Z,13.90
2018-09-08T21:30:48.451Z,13.92
2018-09-08T21:33:18.442Z,13.94
2018-09-08T21:35:48.270Z,13.94
2018-09-08T21:38:18.276Z,13.87
2018-09-08T21:40:48.010Z,13.80
2018-09-08T21:43:17.646Z,13.66
2018-09-08T21:45:47.563Z,13.64
2018-09-08T21:48:17.330Z,13.65
2018-09-08T21:50:46.999Z,13.62
2018-09-08T21:53:16.660Z,13.64
2018-09-08T21:55:46.450Z,13.64
2018-09-08T21:58:16.432Z,13.56
2018-09-08T22:00:51.314Z,13.54
2018-09-08T22:03:21.296Z,13.48
2018-09-08T22:05:51.024Z,13.43
2018-09-08T22:08:20.930Z,13.33
2018-09-08T22:10:50.720Z,13.20
2018-09-08T22:13:20.663Z,13.02
2018-09-08T22:15:50.584Z,12.90
2018-09-08T22:18:20.352Z,12.83
2018-09-08T22:20:50.130Z,12.79
2018-09-08T22:23:20.096Z,12.80
2018-09-08T22:25:49.774Z,12.87
2018-09-08T22:28:19.418Z,12.93
2018-09-08T22:30:49.214Z,12.92
2018-09-08T22:33:18.902Z,12.84
2018-09-08T22:35:48.574Z,12.86
2018-09-08T22:38:18.416Z,12.83
2018-09-08T22:40:48.160Z,12.83
2018-09-08T22:43:17.966Z,12.98
2018-09-08T22:45:47.667Z,12.95
2018-09-08T22:48:17.305Z,12.91
2018-09-08T22:50:46.996Z,12.85
2018-09-08T22:53:16.721Z,12.78
2018-09-08T22:55:46.514Z,12.85
2018-09-08T22:58:16.198Z,12.85
2018-09-08T23:00:45.980Z,12.79
2018-09-08T23:03:15.708Z,12.76
2018-09-08T23:05:45.433Z,12.82
2018-09-08T23:10:53.498Z,12.76
2018-09-08T23:13:23.165Z,12.74
2018-09-08T23:15:52.793Z,12.74
2018-09-08T23:18:22.535Z,12.62
2018-09-08T23:20:52.279Z,12.46
2018-09-08T23:23:22.098Z,12.38
2018-09-08T23:25:51.862Z,12.46
2018-09-08T23:28:21.590Z,12.38
2018-09-08T23:30:51.403Z,12.44
2018-09-08T23:33:21.179Z,12.36
2018-09-08T23:35:50.903Z,12.23
2018-09-08T23:38:20.522Z,12.12
2018-09-08T23:40:50.299Z,12.33
2018-09-08T23:43:20.027Z,12.32
2018-09-08T23:45:49.767Z,12.18
2018-09-08T23:48:19.519Z,12.05
2018-09-08T23:50:49.189Z,11.99
2018-09-08T23:53:19.272Z,11.96
2018-09-08T23:55:49.126Z,11.94
2018-09-08T23:58:18.990Z,11.82
